Time;durP1;ratioP1;P1;durP2;ratioP2;P2;SDS_P1;SDS_P2;PMS_P1;PMS_P2;Temp;Humidity;BMP_temperature;BMP_pressure;BME280_temperature;BME280_humidity;BME280_pressure;Samples;Min_cycle;Max_cycle;Signal;HPM_P1;HPM_P2
2022/08/22 00:00:11;;;;;;;6.68;2.38;;;18.70;99.90;;;;;;4960595;28;20374;-72
2022/08/22 00:02:58;;;;;;;6.00;2.13;;;18.70;99.90;;;;;;4961005;28;20047;-72
2022/08/22 00:05:34;;;;;;;12.23;3.03;;;18.60;99.90;;;;;;4961299;28;20071;-72
2022/08/22 00:08:03;;;;;;;6.20;2.53;;;18.60;99.90;;;;;;4960721;28;20043;-72
2022/08/22 00:10:37;;;;;;;7.43;2.55;;;18.60;99.90;;;;;;4960061;28;20054;-72
2022/08/22 00:13:11;;;;;;;6.93;2.70;;;18.60;99.90;;;;;;4960892;28;20039;-72
2022/08/22 00:15:43;;;;;;;5.28;2.47;;;18.70;99.90;;;;;;4960869;28;20087;-72
2022/08/22 00:18:15;;;;;;;6.90;2.50;;;18.70;99.90;;;;;;4960687;28;20066;-72
2022/08/22 00:20:45;;;;;;;8.00;2.72;;;18.70;99.90;;;;;;4960760;28;20031;-71
2022/08/22 00:23:35;;;;;;;8.65;2.53;;;18.70;99.90;;;;;;4960793;28;20051;-71
2022/08/22 00:26:22;;;;;;;6.35;2.67;;;18.70;99.90;;;;;;4959756;28;20338;-72
2022/08/22 00:29:00;;;;;;;8.32;2.88;;;18.60;99.90;;;;;;4959996;28;20430;-71
2022/08/22 00:31:35;;;;;;;7.85;2.60;;;18.70;99.90;;;;;;4960189;28;20442;-72
2022/08/22 00:34:24;;;;;;;6.68;2.20;;;18.70;99.90;;;;;;4960477;28;20051;-72
2022/08/22 00:37:15;;;;;;;3.65;2.33;;;18.60;99.90;;;;;;4960184;28;20058;-72
2022/08/22 00:40:05;;;;;;;4.43;2.30;;;18.60;99.90;;;;;;4960134;28;20066;-72
2022/08/22 00:43:02;;;;;;;5.80;2.40;;;18.60;99.90;;;;;;4960243;28;20130;-72
2022/08/22 00:45:41;;;;;;;6.07;2.80;;;18.60;99.90;;;;;;4960335;28;20043;-72
2022/08/22 00:48:28;;;;;;;6.57;2.40;;;18.50;99.90;;;;;;4960390;28;20047;-72
2022/08/22 00:51:11;;;;;;;4.40;2.42;;;18.50;99.90;;;;;;4960114;28;20136;-72
2022/08/22 00:53:37;;;;;;;6.38;2.35;;;18.50;99.90;;;;;;4960072;28;20043;-72
2022/08/22 00:56:30;;;;;;;4.30;2.58;;;18.50;99.90;;;;;;4959450;28;20046;-72
2022/08/22 00:58:59;;;;;;;7.95;2.15;;;18.50;99.90;;;;;;4959664;28;20086;-72
2022/08/22 01:01:33;;;;;;;4.38;2.33;;;18.50;99.90;;;;;;4959897;28;20039;-72
2022/08/22 01:04:32;;;;;;;5.72;2.70;;;18.50;99.90;;;;;;4959792;28;20044;-72
2022/08/22 01:07:36;;;;;;;8.68;2.72;;;18.60;99.90;;;;;;4960089;28;20412;-72
2022/08/22 01:10:13;;;;;;;8.68;2.63;;;18.60;99.90;;;;;;4959556;28;20043;-72
2022/08/22 01:12:44;;;;;;;5.60;2.42;;;18.50;99.90;;;;;;4959744;28;20429;-72
2022/08/22 01:15:18;;;;;;;6.95;2.05;;;18.60;99.90;;;;;;4959832;28;20047;-72
2022/08/22 01:18:21;;;;;;;5.72;2.85;;;18.50;99.90;;;;;;4958768;29;20319;-72
2022/08/22 01:21:14;;;;;;;4.75;2.38;;;18.60;99.90;;;;;;4959461;28;20377;-72
2022/08/22 01:24:17;;;;;;;6.00;2.75;;;18.60;99.90;;;;;;4959916;28;20378;-72
2022/08/22 01:26:49;;;;;;;6.80;2.58;;;18.60;99.90;;;;;;4959244;28;20046;-72
2022/08/22 01:29:40;;;;;;;7.68;2.53;;;18.60;99.90;;;;;;4957923;28;20362;-72
2022/08/22 01:32:11;;;;;;;6.25;2.30;;;18.60;99.90;;;;;;4974314;28;20141;-72
2022/08/22 01:34:55;;;;;;;6.30;2.47;;;18.60;99.90;;;;;;4959316;28;20120;-72
2022/08/22 01:37:56;;;;;;;5.45;2.60;;;18.60;99.90;;;;;;4959488;28;20039;-72
2022/08/22 01:40:32;;;;;;;7.20;2.70;;;18.60;99.90;;;;;;4959468;28;20117;-72
2022/08/22 01:43:13;;;;;;;5.20;2.63;;;18.50;99.90;;;;;;4958948;28;20046;-72
2022/08/22 01:46:16;;;;;;;5.20;2.47;;;18.50;99.90;;;;;;4959050;28;20043;-72
2022/08/22 01:48:51;;;;;;;5.88;2.50;;;18.40;99.90;;;;;;4959015;28;20047;-72
2022/08/22 01:51:36;;;;;;;6.97;2.60;;;18.40;99.90;;;;;;4958883;28;20035;-72
2022/08/22 01:54:11;;;;;;;7.43;2.88;;;18.40;99.90;;;;;;4959297;28;20121;-72
2022/08/22 01:56:45;;;;;;;4.93;2.22;;;18.40;99.90;;;;;;4958873;28;20093;-72
2022/08/22 01:59:19;;;;;;;7.22;2.80;;;18.50;99.90;;;;;;4958496;28;20054;-72
2022/08/22 02:02:19;;;;;;;5.90;2.63;;;18.50;99.90;;;;;;4958673;28;20058;-72
2022/08/22 02:04:57;;;;;;;4.95;2.65;;;18.40;99.90;;;;;;4958910;28;20043;-72
2022/08/22 02:07:37;;;;;;;3.80;2.17;;;18.50;99.90;;;;;;4958210;28;20043;-72
2022/08/22 02:10:21;;;;;;;7.13;2.45;;;18.40;99.90;;;;;;4958589;28;20139;-72
2022/08/22 02:13:12;;;;;;;9.18;2.53;;;18.40;99.90;;;;;;4958786;28;20055;-72
2022/08/22 02:15:38;;;;;;;5.25;2.50;;;18.40;99.90;;;;;;4959085;28;20043;-72
2022/08/22 02:18:16;;;;;;;5.70;2.72;;;18.30;99.90;;;;;;4958628;28;20051;-72
2022/08/22 02:20:44;;;;;;;8.90;3.55;;;18.30;99.90;;;;;;4958762;28;20078;-72
2022/08/22 02:23:24;;;;;;;5.38;2.70;;;18.30;99.90;;;;;;4958327;28;20082;-72
2022/08/22 02:26:02;;;;;;;3.95;2.80;;;18.30;99.90;;;;;;4958583;28;20031;-73
2022/08/22 02:28:38;;;;;;;4.53;2.47;;;18.30;99.90;;;;;;4958236;28;20062;-72
2022/08/22 02:31:14;;;;;;;6.40;2.75;;;18.30;99.90;;;;;;4958175;28;20134;-73
2022/08/22 02:33:55;;;;;;;9.57;2.90;;;18.20;99.90;;;;;;4958371;28;20452;-72
2022/08/22 02:36:30;;;;;;;5.07;2.45;;;18.20;99.90;;;;;;4958205;28;20076;-72
2022/08/22 02:38:58;;;;;;;5.57;2.67;;;18.10;99.90;;;;;;4958431;28;20124;-72
2022/08/22 02:41:35;;;;;;;5.43;2.58;;;18.20;99.90;;;;;;4958210;28;20418;-72
2022/08/22 02:44:19;;;;;;;6.22;3.17;;;18.10;99.90;;;;;;4958231;28;20051;-71
2022/08/22 02:47:09;;;;;;;5.75;2.70;;;18.10;99.90;;;;;;4958112;28;20454;-72
2022/08/22 02:49:40;;;;;;;6.38;2.83;;;18.10;99.90;;;;;;4958336;28;20445;-72
2022/08/22 02:52:12;;;;;;;6.28;2.90;;;18.00;99.90;;;;;;4958249;28;20118;-72
2022/08/22 02:54:58;;;;;;;7.38;2.90;;;18.00;99.90;;;;;;4958241;28;20381;-72
2022/08/22 02:57:36;;;;;;;6.22;2.60;;;18.00;99.90;;;;;;4958449;28;20043;-72
2022/08/22 03:00:14;;;;;;;4.13;2.67;;;18.00;99.90;;;;;;4957910;28;20059;-72
2022/08/22 03:02:55;;;;;;;6.35;2.70;;;18.00;99.90;;;;;;4958012;28;20043;-72
2022/08/22 03:05:43;;;;;;;5.25;2.72;;;18.00;99.90;;;;;;4958149;28;20043;-72
2022/08/22 03:08:12;;;;;;;8.05;3.42;;;17.90;99.90;;;;;;4966577;28;20089;-72
2022/08/22 03:11:12;;;;;;;5.85;2.80;;;17.90;99.90;;;;;;4958206;28;20039;-72
2022/08/22 03:14:16;;;;;;;4.63;2.50;;;17.90;99.90;;;;;;4960792;28;20134;-73
2022/08/22 03:17:25;;;;;;;5.00;2.30;;;17.90;99.90;;;;;;4957994;28;20381;-72
2022/08/22 03:20:12;;;;;;;5.90;2.50;;;17.80;99.90;;;;;;4968138;28;20055;-72
2022/08/22 03:22:42;;;;;;;;;;;17.80;99.90;;;;;;4962464;28;20054;-72
2022/08/22 03:25:16;;;;;;;4.05;2.53;;;17.70;99.90;;;;;;4961883;28;19968;-72
2022/08/22 03:27:49;;;;;;;5.18;2.38;;;17.70;99.90;;;;;;4961846;28;20480;-72
2022/08/22 03:30:40;;;;;;;5.25;2.60;;;17.60;99.90;;;;;;4961077;28;20043;-72
2022/08/22 03:33:17;;;;;;;4.85;2.80;;;17.60;99.90;;;;;;4961430;28;20446;-72
2022/08/22 03:35:45;;;;;;;4.93;2.28;;;17.60;99.90;;;;;;4961611;28;20097;-72
2022/08/22 03:38:29;;;;;;;5.00;2.22;;;17.60;99.90;;;;;;4961506;28;20046;-72
2022/08/22 03:41:26;;;;;;;7.82;2.20;;;17.50;99.90;;;;;;4961337;28;20046;-72
2022/08/22 03:44:16;;;;;;;4.82;2.20;;;17.60;99.90;;;;;;4961195;28;20047;-72
2022/08/22 03:47:06;;;;;;;4.70;2.35;;;17.60;99.90;;;;;;4961206;28;20434;-72
2022/08/22 03:49:51;;;;;;;5.43;2.67;;;17.60;99.90;;;;;;4961208;28;20055;-72
2022/08/22 03:52:16;;;;;;;3.25;2.10;;;17.60;99.90;;;;;;4961375;28;20112;-72
2022/08/22 03:55:28;;;;;;;4.18;2.17;;;17.60;99.90;;;;;;4960257;28;20118;-72
2022/08/22 03:58:14;;;;;;;4.40;2.22;;;17.50;99.90;;;;;;4961078;28;20043;-71
2022/08/22 04:00:58;;;;;;;6.15;2.35;;;17.50;99.90;;;;;;4961147;28;20042;-72
2022/08/22 04:03:42;;;;;;;7.30;2.92;;;17.50;99.90;;;;;;4961097;28;20098;-72
2022/08/22 04:06:38;;;;;;;5.60;2.35;;;17.50;99.90;;;;;;4960976;28;20127;-72
2022/08/22 04:09:25;;;;;;;5.73;2.43;;;17.50;99.90;;;;;;4960970;28;20066;-72
2022/08/22 04:12:16;;;;;;;5.78;2.38;;;17.50;99.90;;;;;;4961008;28;20067;-72
2022/08/22 04:15:17;;;;;;;4.10;2.17;;;17.50;99.90;;;;;;4960778;28;20341;-72
2022/08/22 04:18:01;;;;;;;3.88;2.15;;;17.50;99.90;;;;;;4960715;28;20039;-72
2022/08/22 04:20:39;;;;;;;4.80;2.40;;;17.50;99.90;;;;;;4960888;28;20146;-72
2022/08/22 04:23:35;;;;;;;5.72;2.38;;;17.50;99.90;;;;;;4960585;28;20043;-72
2022/08/22 04:26:07;;;;;;;4.45;2.25;;;17.40;99.90;;;;;;4960704;28;20051;-72
2022/08/22 04:28:51;;;;;;;6.20;2.92;;;17.40;99.90;;;;;;4959988;28;20512;-72
2022/08/22 04:31:31;;;;;;;4.15;2.28;;;17.40;99.90;;;;;;4959798;28;20501;-72
2022/08/22 04:34:30;;;;;;;4.75;2.10;;;17.40;99.90;;;;;;4960654;28;20059;-72
2022/08/22 04:37:07;;;;;;;7.32;2.40;;;17.40;99.90;;;;;;4960143;28;20083;-72
2022/08/22 04:39:45;;;;;;;5.28;2.58;;;17.40;99.90;;;;;;4960265;28;20047;-72
2022/08/22 04:42:17;;;;;;;6.50;2.85;;;17.40;99.90;;;;;;4960473;28;20039;-72
2022/08/22 04:45:08;;;;;;;5.97;2.80;;;17.40;99.90;;;;;;4960252;28;20094;-71
2022/08/22 04:47:36;;;;;;;5.53;2.67;;;17.50;99.90;;;;;;4960354;28;20093;-72
2022/08/22 04:50:41;;;;;;;5.40;2.55;;;17.50;99.90;;;;;;4960243;28;20031;-72
2022/08/22 04:53:19;;;;;;;6.68;2.50;;;17.50;99.90;;;;;;4960279;28;20089;-72
2022/08/22 04:55:48;;;;;;;6.53;2.60;;;17.50;99.90;;;;;;4960105;28;20040;-72
2022/08/22 04:58:23;;;;;;;4.60;2.65;;;17.50;99.90;;;;;;4959610;28;20047;-72
2022/08/22 05:01:17;;;;;;;3.92;2.47;;;17.50;99.90;;;;;;4959920;28;20373;-72
2022/08/22 05:04:01;;;;;;;4.90;2.35;;;17.50;99.90;;;;;;4959878;28;20047;-72
2022/08/22 05:06:31;;;;;;;6.20;2.85;;;17.40;99.90;;;;;;4959787;28;20166;-72
2022/08/22 05:09:04;;;;;;;4.93;2.67;;;17.50;99.90;;;;;;4960256;28;20334;-72
2022/08/22 05:11:32;;;;;;;7.93;2.97;;;17.50;99.90;;;;;;4959953;28;20043;-72
2022/08/22 05:14:04;;;;;;;8.60;2.92;;;17.50;99.90;;;;;;4959834;28;20059;-72
2022/08/22 05:16:36;;;;;;;7.25;3.05;;;17.50;99.90;;;;;;4974745;28;20322;-72
2022/08/22 05:19:08;;;;;;;8.70;2.88;;;17.50;99.90;;;;;;4959597;28;20047;-72
2022/08/22 05:21:38;;;;;;;8.25;2.70;;;17.50;99.90;;;;;;4959516;28;20050;-72
2022/08/22 05:24:12;;;;;;;7.97;2.60;;;17.50;99.90;;;;;;4959511;28;20078;-72
2022/08/22 05:26:46;;;;;;;3.05;2.08;;;17.50;99.90;;;;;;4959599;28;20042;-72
2022/08/22 05:29:17;;;;;;;3.72;2.35;;;17.50;99.90;;;;;;4958862;28;20430;-72
2022/08/22 05:31:49;;;;;;;4.03;2.38;;;17.50;99.90;;;;;;4959289;28;20055;-72
2022/08/22 05:34:22;;;;;;;5.53;2.30;;;17.50;99.90;;;;;;4959138;28;20047;-72
2022/08/22 05:37:00;;;;;;;4.47;2.42;;;17.50;99.90;;;;;;4958165;29;20078;-72
2022/08/22 05:39:28;;;;;;;4.93;2.70;;;17.60;99.90;;;;;;4959232;28;20081;-72
2022/08/22 05:41:56;;;;;;;6.85;2.60;;;17.70;99.90;;;;;;4959022;28;20046;-72
2022/08/22 05:44:36;;;;;;;5.65;2.47;;;17.70;99.90;;;;;;4974075;28;20051;-72
2022/08/22 05:47:22;;;;;;;4.43;2.33;;;17.80;99.90;;;;;;4957965;29;20051;-72
2022/08/22 05:50:00;;;;;;;5.10;2.70;;;17.90;99.90;;;;;;4959034;28;20045;-72
2022/08/22 05:52:42;;;;;;;6.63;2.70;;;17.90;99.90;;;;;;4958853;28;20043;-72
2022/08/22 05:55:43;;;;;;;7.40;3.40;;;17.90;99.90;;;;;;4959129;28;20043;-72
2022/08/22 05:58:12;;;;;;;6.80;3.20;;;17.90;99.90;;;;;;4959056;28;20370;-72
2022/08/22 06:00:43;;;;;;;8.50;3.15;;;17.90;99.90;;;;;;4958210;28;20043;-72
2022/08/22 06:03:30;;;;;;;13.32;3.83;;;18.00;99.90;;;;;;4958673;28;20452;-72
2022/08/22 06:06:01;;;;;;;6.78;3.65;;;18.10;99.90;;;;;;4958918;28;20126;-71
2022/08/22 06:08:34;;;;;;;9.43;3.22;;;18.20;99.90;;;;;;4958861;28;20039;-72
2022/08/22 06:11:20;;;;;;;9.15;3.95;;;18.30;99.90;;;;;;4958716;28;20081;-72
2022/08/22 06:13:54;;;;;;;11.15;3.88;;;18.40;99.90;;;;;;4958795;28;20051;-72
2022/08/22 06:16:35;;;;;;;10.50;3.70;;;18.60;99.90;;;;;;4958783;28;20114;-72
2022/08/22 06:19:02;;;;;;;8.95;4.18;;;18.70;99.90;;;;;;4958831;28;20039;-72
2022/08/22 06:21:34;;;;;;;10.27;4.32;;;18.80;99.90;;;;;;4958531;28;20082;-72
2022/08/22 06:24:02;;;;;;;7.28;4.05;;;19.00;99.90;;;;;;4958731;28;20102;-72
2022/08/22 06:26:34;;;;;;;9.27;4.28;;;19.10;99.90;;;;;;4957345;28;20051;-72
2022/08/22 06:29:01;;;;;;;7.93;4.10;;;19.30;99.90;;;;;;4958006;28;20385;-72
2022/08/22 06:31:39;;;;;;;9.20;4.53;;;19.30;99.90;;;;;;4958521;28;20059;-72
2022/08/22 06:34:09;;;;;;;8.95;4.43;;;19.40;99.90;;;;;;4958349;28;20492;-72
2022/08/22 06:36:39;;;;;;;9.00;4.50;;;19.50;99.90;;;;;;4958513;28;20043;-72
2022/08/22 06:39:44;;;;;;;16.80;4.88;;;19.50;99.90;;;;;;4957213;29;20122;-72
2022/08/22 06:42:15;;;;;;;9.23;4.78;;;19.60;99.90;;;;;;4975550;28;20055;-71
2022/08/22 06:44:49;;;;;;;10.38;4.70;;;19.60;99.90;;;;;;4975587;28;20051;-72
2022/08/22 06:47:24;;;;;;;14.10;6.20;;;19.60;99.90;;;;;;4965698;28;20047;-72
2022/08/22 06:49:58;;;;;;;13.77;5.70;;;19.70;99.90;;;;;;4958574;28;20043;-71
2022/08/22 06:52:27;;;;;;;13.05;5.15;;;19.80;99.90;;;;;;4958820;28;20046;-71
2022/08/22 06:55:06;;;;;;;9.73;4.20;;;19.90;99.90;;;;;;4962201;29;20041;-68
2022/08/22 06:57:48;;;;;;;9.52;3.92;;;20.00;99.90;;;;;;4961995;28;20038;-68
2022/08/22 07:00:15;;;;;;;12.65;5.25;;;20.10;99.90;;;;;;4961738;28;20035;-68
2022/08/22 07:02:48;;;;;;;13.82;5.65;;;20.20;99.90;;;;;;4962007;28;20055;-68
2022/08/22 07:05:25;;;;;;;11.05;5.10;;;20.20;99.90;;;;;;4962383;28;20122;-70
2022/08/22 07:07:51;;;;;;;16.65;5.43;;;20.30;99.90;;;;;;4962263;28;20062;-68
2022/08/22 07:10:20;;;;;;;10.48;4.82;;;20.10;99.90;;;;;;4961968;28;20105;-68
2022/08/22 07:12:49;;;;;;;14.10;6.55;;;20.10;99.90;;;;;;4962016;28;20046;-68
2022/08/22 07:15:35;;;;;;;12.40;5.55;;;20.20;99.90;;;;;;4961794;28;20040;-68
2022/08/22 07:18:26;;;;;;;12.75;4.97;;;20.10;99.90;;;;;;4960741;28;20062;-68
2022/08/22 07:20:55;;;;;;;10.35;5.18;;;20.20;99.90;;;;;;4962030;28;20043;-68
2022/08/22 07:23:34;;;;;;;11.93;5.40;;;20.40;99.90;;;;;;4961492;28;20446;-68
2022/08/22 07:26:21;;;;;;;11.93;5.57;;;20.50;99.90;;;;;;4961773;28;20046;-69
2022/08/22 07:28:47;;;;;;;17.80;6.07;;;20.50;99.90;;;;;;4966054;28;20050;-69
2022/08/22 07:31:30;;;;;;;26.88;6.03;;;20.60;99.90;;;;;;4980159;28;20102;-69
2022/08/22 07:34:22;;;;;;;16.23;5.75;;;20.60;99.90;;;;;;4978874;28;20047;-69
2022/08/22 07:37:13;;;;;;;18.73;5.93;;;20.60;99.90;;;;;;4980798;28;20047;-68
2022/08/22 07:39:52;;;;;;;17.63;6.95;;;20.60;99.90;;;;;;4979736;28;20043;-68
2022/08/22 07:42:27;;;;;;;17.48;6.57;;;20.60;99.90;;;;;;4980451;28;20045;-68
2022/08/22 07:45:00;;;;;;;13.93;4.95;;;20.60;99.90;;;;;;4959508;29;20434;-74
2022/08/22 07:47:46;;;;;;;23.10;8.13;;;20.70;99.90;;;;;;4963726;28;20043;-71
2022/08/22 07:50:19;;;;;;;22.55;8.13;;;20.80;99.90;;;;;;4961435;29;20118;-71
2022/08/22 07:52:45;;;;;;;16.02;7.20;;;20.80;99.90;;;;;;4960387;29;20035;-70
2022/08/22 07:55:18;;;;;;;18.13;7.75;;;20.80;99.90;;;;;;4961354;29;20050;-71
2022/08/22 07:57:53;;;;;;;22.15;7.32;;;20.90;99.90;;;;;;4961109;28;20042;-70
2022/08/22 08:00:20;;;;;;;15.23;7.22;;;21.10;99.90;;;;;;4960755;29;20089;-70
2022/08/22 08:02:51;;;;;;;12.70;5.95;;;21.20;99.90;;;;;;4960756;28;20426;-71
2022/08/22 08:05:21;;;;;;;18.35;5.60;;;21.30;99.90;;;;;;4959830;28;20122;-70
2022/08/22 08:07:47;;;;;;;16.25;5.47;;;21.40;99.90;;;;;;4960605;28;20040;-71
2022/08/22 08:10:24;;;;;;;13.98;5.30;;;21.30;99.90;;;;;;4960945;29;20079;-70
2022/08/22 08:12:53;;;;;;;23.48;6.28;;;21.10;99.90;;;;;;4960766;28;20047;-70
2022/08/22 08:15:22;;;;;;;16.52;4.45;;;21.20;99.90;;;;;;4960777;28;20079;-70
2022/08/22 08:17:56;;;;;;;15.95;4.63;;;21.30;99.90;;;;;;4975718;28;20342;-87
2022/08/22 08:20:26;;;;;;;18.15;4.15;;;21.40;99.90;;;;;;4976129;28;20058;-88
2022/08/22 08:22:54;;;;;;;14.27;3.97;;;20.90;99.90;;;;;;4975785;28;20047;-70
2022/08/22 08:25:27;;;;;;;16.75;4.80;;;20.80;99.90;;;;;;4960505;29;20426;-70
2022/08/22 08:30:55;;;;;;;17.00;4.18;;;21.20;99.90;;;;;;4960094;28;20051;-70
2022/08/22 08:33:26;;;;;;;15.48;3.35;;;21.50;99.90;;;;;;4960421;29;20529;-71
2022/08/22 08:36:16;;;;;;;18.17;4.20;;;21.70;99.90;;;;;;4960459;28;20047;-71
2022/08/22 08:38:51;;;;;;;15.80;3.88;;;21.80;99.90;;;;;;4960670;29;20129;-70
2022/08/22 08:41:57;;;;;;;9.77;3.67;;;21.90;99.90;;;;;;4960186;29;20074;-71
2022/08/22 08:44:29;;;;;;;13.85;3.72;;;21.80;99.90;;;;;;4960381;29;20046;-71
2022/08/22 08:47:08;;;;;;;13.85;3.70;;;21.90;99.90;;;;;;4960279;29;20058;-70
2022/08/22 08:49:56;;;;;;;13.95;3.55;;;21.90;99.90;;;;;;4975044;28;20145;-71
2022/08/22 08:52:33;;;;;;;15.05;3.63;;;21.90;99.90;;;;;;4960337;28;20046;-70
2022/08/22 08:55:31;;;;;;;8.00;3.10;;;21.90;99.90;;;;;;4960236;28;20043;-71
2022/08/22 08:58:00;;;;;;;10.18;2.83;;;22.10;99.90;;;;;;4959773;28;20090;-71
2022/08/22 09:00:43;;;;;;;13.88;2.92;;;22.30;99.90;;;;;;4959762;29;20031;-69
2022/08/22 09:03:43;;;;;;;13.25;2.80;;;22.50;99.90;;;;;;4959847;28;20047;-68
2022/08/22 09:06:24;;;;;;;13.80;3.10;;;22.30;99.90;;;;;;4959746;28;20114;-68
2022/08/22 09:09:28;;;;;;;13.52;3.22;;;22.50;99.90;;;;;;4966507;28;20113;-69
2022/08/22 09:12:18;;;;;;;15.55;3.47;;;22.60;99.90;;;;;;4978839;28;20042;-69
2022/08/22 09:15:10;;;;;;;14.80;3.70;;;22.80;99.90;;;;;;4978541;28;20086;-69
2022/08/22 09:18:02;;;;;;;18.15;3.90;;;22.60;99.90;;;;;;4978059;28;20038;-69
2022/08/22 09:20:46;;;;;;;9.32;3.10;;;22.60;99.90;;;;;;4972970;28;20327;-69
2022/08/22 09:23:54;;;;;;;14.13;3.78;;;22.60;99.90;;;;;;4987997;28;20047;-70
2022/08/22 09:26:53;;;;;;;14.30;2.80;;;23.00;99.90;;;;;;4986423;28;20459;-69
2022/08/22 09:29:30;;;;;;;13.10;3.33;;;23.40;99.90;;;;;;4957781;29;20043;-69
2022/08/22 09:32:08;;;;;;;12.68;3.05;;;23.40;99.90;;;;;;4959309;28;20051;-69
2022/08/22 09:34:53;;;;;;;11.70;2.80;;;23.40;99.90;;;;;;4959443;29;20047;-69
2022/08/22 09:38:00;;;;;;;12.90;2.97;;;23.40;99.90;;;;;;4959215;28;20434;-69
2022/08/22 09:40:53;;;;;;;16.27;3.05;;;23.60;99.90;;;;;;4959477;28;20085;-68
2022/08/22 09:43:42;;;;;;;11.10;2.95;;;23.60;99.90;;;;;;4959003;29;20489;-68
2022/08/22 09:46:22;;;;;;;13.07;3.00;;;23.60;99.90;;;;;;4959075;28;20125;-69
2022/08/22 09:48:48;;;;;;;12.55;3.45;;;23.70;99.90;;;;;;4959362;28;20035;-68
2022/08/22 09:51:37;;;;;;;13.57;2.58;;;23.90;99.90;;;;;;4959048;29;20490;-68
2022/08/22 09:54:03;;;;;;;10.60;2.80;;;23.90;99.90;;;;;;4957833;29;20122;-69
2022/08/22 09:56:53;;;;;;;13.35;3.03;;;24.00;99.90;;;;;;4958791;28;20121;-68
2022/08/22 09:59:43;;;;;;;10.98;2.80;;;24.30;99.90;;;;;;4958695;29;20039;-68
2022/08/22 10:02:39;;;;;;;13.50;3.25;;;24.70;99.90;;;;;;4959084;29;20043;-68
2022/08/22 10:05:14;;;;;;;11.27;3.08;;;24.90;99.90;;;;;;4959034;29;20047;-68
2022/08/22 10:08:11;;;;;;;14.70;3.25;;;25.00;99.90;;;;;;4958832;29;20055;-68
2022/08/22 10:11:05;;;;;;;11.02;2.55;;;24.90;99.90;;;;;;4958772;28;20082;-68
2022/08/22 10:14:01;;;;;;;11.70;2.90;;;25.00;99.90;;;;;;4958608;29;20043;-68
2022/08/22 10:16:50;;;;;;;12.00;2.72;;;25.20;99.90;;;;;;4958630;28;20037;-73
2022/08/22 10:19:46;;;;;;;11.65;2.35;;;25.00;99.90;;;;;;4958744;28;20051;-68
2022/08/22 10:22:25;;;;;;;12.82;2.78;;;25.20;99.90;;;;;;4959003;29;20058;-68
2022/08/22 10:24:59;;;;;;;6.82;2.58;;;25.20;99.90;;;;;;4958654;28;20123;-68
2022/08/22 10:27:59;;;;;;;12.07;2.90;;;25.30;99.90;;;;;;4957783;28;20329;-68
2022/08/22 10:30:35;;;;;;;10.55;3.13;;;25.70;99.90;;;;;;4958220;29;20122;-69
2022/08/22 10:33:21;;;;;;;10.10;2.63;;;25.80;99.80;;;;;;4958432;29;20066;-70
2022/08/22 10:35:47;;;;;;;;;;;25.80;99.70;;;;;;4958648;29;20417;-69
2022/08/22 10:38:27;;;;;;;9.43;2.37;;;25.50;99.80;;;;;;4958399;28;19934;-68
2022/08/22 10:41:31;;;;;;;12.00;2.22;;;25.40;99.60;;;;;;4958494;29;20051;-68
2022/08/22 10:44:01;;;;;;;9.63;2.35;;;25.50;99.70;;;;;;4958118;28;20043;-67
2022/08/22 10:46:43;;;;;;;9.27;2.20;;;25.40;99.80;;;;;;4958243;29;20039;-68
2022/08/22 10:49:30;;;;;;;6.63;2.10;;;25.60;99.90;;;;;;4958313;29;20444;-68
2022/08/22 10:52:07;;;;;;;13.60;2.30;;;25.50;99.80;;;;;;4958276;28;20097;-68
2022/08/22 10:54:47;;;;;;;9.57;3.00;;;25.50;99.40;;;;;;4958350;29;20413;-68
2022/08/22 10:57:35;;;;;;;9.23;2.05;;;25.20;99.30;;;;;;4958442;29;20043;-68
2022/08/22 11:00:16;;;;;;;12.00;2.20;;;25.30;99.30;;;;;;4957638;28;20437;-68
2022/08/22 11:03:11;;;;;;;10.38;2.22;;;25.40;99.60;;;;;;4957980;29;20363;-68
2022/08/22 11:05:43;;;;;;;9.77;2.42;;;25.60;99.70;;;;;;4957105;29;20043;-68
2022/08/22 11:08:42;;;;;;;10.40;2.60;;;26.00;99.50;;;;;;4957974;29;20048;-68
2022/08/22 11:11:30;;;;;;;10.18;2.38;;;26.30;99.20;;;;;;4958347;28;20047;-68
2022/08/22 11:14:11;;;;;;;15.52;2.63;;;26.20;99.30;;;;;;4958171;28;20047;-77
2022/08/22 11:16:53;;;;;;;8.15;2.38;;;25.90;99.30;;;;;;4973100;28;20043;-77
2022/08/22 11:19:46;;;;;;;10.18;2.38;;;25.20;99.40;;;;;;4956938;28;20085;-81
2022/08/22 11:22:39;;;;;;;9.88;2.25;;;25.00;99.40;;;;;;4973075;28;20090;-82
2022/08/22 11:25:24;;;;;;;12.65;2.75;;;24.80;99.70;;;;;;4957180;28;20105;-81
2022/08/22 11:28:17;;;;;;;14.38;2.83;;;24.60;99.80;;;;;;4972943;28;20047;-81
2022/08/22 11:30:45;;;;;;;10.10;2.80;;;24.60;99.90;;;;;;4956638;29;20039;-81
2022/08/22 11:33:42;;;;;;;7.88;2.30;;;23.70;99.70;;;;;;4972844;28;20066;-79
2022/08/22 11:36:20;;;;;;;;;;;24.00;99.90;;;;;;4973324;28;20051;-81
2022/08/22 11:39:01;;;;;;;8.80;2.70;;;24.20;99.50;;;;;;4957750;28;19948;-80
2022/08/22 11:41:44;;;;;;;14.43;3.10;;;23.90;99.60;;;;;;4976508;28;20377;-81
2022/08/22 11:44:27;;;;;;;9.75;1.90;;;23.60;99.70;;;;;;4976379;28;20078;-81
2022/08/22 11:46:56;;;;;;;12.70;2.22;;;23.90;99.90;;;;;;4976375;28;20319;-82
2022/08/22 11:49:33;;;;;;;10.70;2.55;;;23.90;99.90;;;;;;4960717;29;20039;-80
2022/08/22 11:52:27;;;;;;;10.85;2.50;;;24.00;99.90;;;;;;4976280;28;20049;-79
2022/08/22 11:54:58;;;;;;;9.73;2.38;;;24.40;99.90;;;;;;4976449;28;20098;-79
2022/08/22 11:57:50;;;;;;;6.57;2.28;;;24.60;99.90;;;;;;4976065;28;20043;-80
2022/08/22 12:00:19;;;;;;;10.75;3.00;;;25.00;99.90;;;;;;4976213;28;20303;-79
2022/08/22 12:03:22;;;;;;;7.45;2.17;;;25.20;99.20;;;;;;4976126;28;20049;-79
2022/08/22 12:06:05;;;;;;;9.65;2.53;;;25.50;99.60;;;;;;4976054;28;20047;-78
2022/08/22 12:08:39;;;;;;;9.30;2.40;;;25.60;99.60;;;;;;4976295;28;20062;-79
2022/08/22 12:11:25;;;;;;;20.20;6.25;;;25.70;99.30;;;;;;4976186;28;20043;-78
2022/08/22 12:14:15;;;;;;;;;;;25.80;99.30;;;;;;4960215;28;20051;-79
2022/08/22 12:17:04;;;;;;;30.10;11.18;;;25.40;99.00;;;;;;4976331;28;20272;-79
2022/08/22 12:19:53;;;;;;;17.90;5.90;;;25.20;99.20;;;;;;4975702;28;20082;-78
2022/08/22 12:22:53;;;;;;;11.48;2.35;;;25.40;99.60;;;;;;4959516;29;20043;-77
2022/08/22 12:25:40;;;;;;;12.60;2.80;;;25.60;99.60;;;;;;4960838;28;20168;-69
2022/08/22 12:28:20;;;;;;;9.35;2.05;;;25.70;99.30;;;;;;4960626;29;20043;-68
2022/08/22 12:31:01;;;;;;;7.43;2.08;;;26.00;99.40;;;;;;4960122;28;20077;-68
2022/08/22 12:34:04;;;;;;;7.00;1.70;;;26.30;98.90;;;;;;4960614;28;20051;-69
2022/08/22 12:37:00;;;;;;;6.60;1.88;;;26.60;99.00;;;;;;4960429;28;20077;-68
2022/08/22 12:39:55;;;;;;;6.57;2.40;;;26.90;98.80;;;;;;4960670;28;20130;-69
2022/08/22 12:42:32;;;;;;;7.65;2.40;;;27.20;98.70;;;;;;4960274;28;20492;-69
2022/08/22 12:44:58;;;;;;;14.05;2.85;;;27.40;98.60;;;;;;4960559;29;20038;-70
2022/08/22 12:47:44;;;;;;;10.50;2.40;;;27.30;98.50;;;;;;4975228;28;20449;-70
2022/08/22 12:50:11;;;;;;;11.88;2.65;;;27.10;98.80;;;;;;4959576;28;20082;-69
2022/08/22 12:52:56;;;;;;;9.20;2.28;;;27.00;98.60;;;;;;4960375;29;20055;-69
2022/08/22 12:55:45;;;;;;;6.13;2.05;;;27.10;98.70;;;;;;4960076;28;20049;-70
2022/08/22 12:58:33;;;;;;;8.98;2.10;;;27.70;98.40;;;;;;4960099;29;20461;-70
2022/08/22 13:01:04;;;;;;;5.93;2.35;;;28.30;98.20;;;;;;4959685;29;20122;-69
2022/08/22 13:03:52;;;;;;;9.13;2.40;;;28.40;98.20;;;;;;4959804;29;20465;-70
2022/08/22 13:06:41;;;;;;;5.95;1.73;;;28.60;97.90;;;;;;4960144;28;20122;-69
2022/08/22 13:09:17;;;;;;;6.95;2.30;;;28.60;98.10;;;;;;4966919;28;20343;-70
2022/08/22 13:11:44;;;;;;;;;;;28.70;97.60;;;;;;4960240;28;20098;-70
2022/08/22 13:14:12;;;;;;;5.70;1.65;;;28.80;97.90;;;;;;4959668;28;19926;-70
2022/08/22 13:16:47;;;;;;;7.65;1.58;;;28.90;97.20;;;;;;4959624;29;20127;-70
2022/08/22 13:19:20;;;;;;;6.78;1.50;;;29.00;97.20;;;;;;4959574;29;20460;-69
2022/08/22 13:21:54;;;;;;;6.45;2.00;;;29.10;97.10;;;;;;4959712;29;20094;-69
2022/08/22 13:24:53;;;;;;;4.60;1.40;;;29.60;97.50;;;;;;4959570;29;20043;-70
2022/08/22 13:27:41;;;;;;;9.68;2.10;;;29.40;96.80;;;;;;4959679;28;20043;-68
2022/08/22 13:30:15;;;;;;;7.97;2.03;;;29.10;96.70;;;;;;4958963;28;20426;-67
2022/08/22 13:32:52;;;;;;;5.60;1.63;;;29.00;96.60;;;;;;4958229;29;20443;-67
2022/08/22 13:35:29;;;;;;;5.30;1.70;;;29.20;97.10;;;;;;4959258;28;20097;-77
2022/08/22 13:38:03;;;;;;;5.85;2.15;;;29.00;96.80;;;;;;4974208;28;20460;-76
2022/08/22 13:40:31;;;;;;;6.47;1.67;;;28.40;97.30;;;;;;4959341;28;20046;-68
2022/08/22 13:43:04;;;;;;;6.55;1.88;;;28.00;97.30;;;;;;4959050;28;20043;-67
2022/08/22 13:45:33;;;;;;;4.80;1.27;;;28.20;97.20;;;;;;4959366;29;20323;-67
2022/08/22 13:48:06;;;;;;;7.88;1.83;;;28.70;97.20;;;;;;4973982;28;20043;-68
2022/08/22 13:50:35;;;;;;;8.43;1.80;;;28.90;97.00;;;;;;4959307;29;20113;-68
2022/08/22 13:53:10;;;;;;;7.60;1.80;;;28.80;96.70;;;;;;4959083;28;20054;-68
2022/08/22 13:55:49;;;;;;;6.15;1.35;;;28.90;97.20;;;;;;4959155;28;20114;-67
2022/08/22 13:58:40;;;;;;;5.05;1.45;;;28.40;96.80;;;;;;4959145;29;20046;-68